Time;durP1;ratioP1;P1;durP2;ratioP2;P2;SDS_P1;SDS_P2;PMS_P1;PMS_P2;Temp;Humidity;BMP_temperature;BMP_pressure;BME280_temperature;BME280_humidity;BME280_pressure;Samples;Min_cycle;Max_cycle;Signal;HPM_P1;HPM_P2
2022/01/03 00:01:35;;;;;;;11.65;7.80;;;4.90;99.90;;;;;;5021803;28;20222;-74
2022/01/03 00:04:00;;;;;;;8.50;7.65;;;4.90;99.90;;;;;;5025735;28;20281;-74
2022/01/03 00:06:26;;;;;;;8.13;7.30;;;4.90;99.90;;;;;;5028423;28;20661;-75
2022/01/03 00:08:52;;;;;;;8.98;7.22;;;5.00;99.90;;;;;;5037442;28;20551;-74
2022/01/03 00:11:20;;;;;;;8.30;7.50;;;5.00;99.90;;;;;;5020562;28;20297;-74
2022/01/03 00:13:48;;;;;;;9.93;7.80;;;5.00;99.90;;;;;;5026350;28;20259;-73
2022/01/03 00:16:14;;;;;;;8.55;7.65;;;5.00;99.90;;;;;;5013027;28;20235;-73
2022/01/03 00:18:41;;;;;;;7.28;6.57;;;5.00;99.90;;;;;;5020851;28;20207;-73
2022/01/03 00:21:11;;;;;;;8.35;6.78;;;5.20;99.90;;;;;;5024037;28;20213;-73
2022/01/03 00:23:38;;;;;;;6.03;3.75;;;5.30;99.90;;;;;;5021736;28;20203;-73
2022/01/03 00:26:06;;;;;;;4.20;3.65;;;5.60;99.90;;;;;;5029323;28;20184;-73
2022/01/03 00:28:34;;;;;;;5.65;3.92;;;6.10;99.90;;;;;;5021293;28;20583;-73
2022/01/03 00:31:00;;;;;;;3.53;3.10;;;6.60;99.90;;;;;;5021887;28;20216;-73
2022/01/03 00:33:26;;;;;;;5.07;3.47;;;6.90;99.90;;;;;;5030638;28;20226;-74
2022/01/03 00:35:59;;;;;;;5.85;3.40;;;7.10;99.90;;;;;;5022021;28;20181;-74
2022/01/03 00:38:34;;;;;;;4.45;3.50;;;7.40;99.90;;;;;;5025249;28;20254;-74
2022/01/03 00:41:02;;;;;;;4.30;3.33;;;7.60;99.90;;;;;;5028381;28;20209;-74
2022/01/03 00:43:29;;;;;;;4.40;3.60;;;7.80;99.90;;;;;;5028763;28;20215;-74
2022/01/03 00:45:55;;;;;;;3.47;2.65;;;7.80;99.90;;;;;;5028974;28;20193;-74
2022/01/03 00:48:22;;;;;;;2.53;2.35;;;7.90;99.90;;;;;;5032377;28;20181;-73
2022/01/03 00:50:49;;;;;;;3.67;3.38;;;8.00;99.90;;;;;;5035629;28;20660;-73
2022/01/03 00:53:15;;;;;;;4.65;3.55;;;8.10;99.90;;;;;;5032487;28;20188;-73
2022/01/03 00:56:04;;;;;;;4.15;3.80;;;8.10;99.90;;;;;;5042479;28;20226;-75
2022/01/03 00:58:46;;;;;;;4.20;3.80;;;8.10;99.90;;;;;;5033114;28;20540;-74
2022/01/03 01:01:12;;;;;;;5.95;3.28;;;8.10;99.90;;;;;;5024591;28;20216;-74
2022/01/03 01:03:39;;;;;;;3.85;3.45;;;8.10;99.90;;;;;;5031705;28;20177;-74
2022/01/03 01:06:07;;;;;;;4.82;3.10;;;8.10;99.90;;;;;;5034203;28;20607;-74
2022/01/03 01:08:35;;;;;;;3.67;3.33;;;8.20;99.90;;;;;;5024918;28;20659;-74
2022/01/03 01:11:03;;;;;;;5.55;4.30;;;8.30;99.90;;;;;;5021985;28;20233;-74
2022/01/03 01:13:29;;;;;;;4.65;4.25;;;8.30;99.90;;;;;;5030471;28;20539;-74
2022/01/03 01:15:55;;;;;;;3.28;2.97;;;8.30;99.90;;;;;;5033318;28;20185;-73
2022/01/03 01:18:24;;;;;;;3.58;3.28;;;8.20;99.90;;;;;;5029750;28;20188;-74
2022/01/03 01:20:50;;;;;;;5.07;3.70;;;8.20;99.90;;;;;;5023583;28;20569;-74
2022/01/03 01:23:16;;;;;;;4.93;4.43;;;8.10;99.90;;;;;;5032355;28;20181;-74
2022/01/03 01:28:10;;;;;;;4.72;4.22;;;8.10;99.90;;;;;;5036788;28;20260;-73
2022/01/03 01:30:36;;;;;;;3.50;3.20;;;8.00;99.90;;;;;;5030466;28;20201;-74
2022/01/03 01:33:15;;;;;;;5.10;3.45;;;8.00;99.90;;;;;;5032803;28;20181;-74
2022/01/03 01:35:48;;;;;;;3.88;3.58;;;7.90;99.90;;;;;;5022281;28;20562;-74
2022/01/03 01:38:16;;;;;;;4.28;3.88;;;8.00;99.90;;;;;;5033112;28;20211;-74
2022/01/03 01:40:48;;;;;;;4.10;3.70;;;8.00;99.90;;;;;;5030935;28;20206;-73
2022/01/03 01:43:39;;;;;;;3.80;3.50;;;8.00;99.90;;;;;;5027961;28;20195;-73
2022/01/03 01:46:09;;;;;;;3.13;2.85;;;8.00;99.90;;;;;;5025814;28;20195;-74
2022/01/03 01:48:36;;;;;;;5.35;3.47;;;8.10;99.90;;;;;;5018655;28;20545;-74
2022/01/03 01:51:04;;;;;;;3.72;3.40;;;8.20;99.90;;;;;;5033653;28;20196;-74
2022/01/03 01:53:30;;;;;;;4.00;3.58;;;8.20;99.90;;;;;;5034019;28;20534;-74
2022/01/03 01:55:58;;;;;;;5.80;3.88;;;8.30;99.90;;;;;;5030283;28;20199;-74
2022/01/03 01:58:34;;;;;;;3.30;3.10;;;8.20;99.90;;;;;;5030291;28;20180;-74
2022/01/03 02:01:04;;;;;;;4.35;3.22;;;8.20;99.90;;;;;;5046812;28;20265;-74
2022/01/03 02:03:45;;;;;;;4.07;2.95;;;8.20;99.90;;;;;;5035672;28;20230;-74
2022/01/03 02:06:40;;;;;;;4.00;3.70;;;8.20;99.90;;;;;;5041292;28;20187;-73
2022/01/03 02:09:07;;;;;;;6.03;3.58;;;8.10;99.90;;;;;;5018341;28;20208;-73
2022/01/03 02:11:55;;;;;;;4.70;2.85;;;8.10;99.90;;;;;;5029637;28;20201;-74
2022/01/03 02:14:22;;;;;;;3.47;3.17;;;8.10;99.90;;;;;;5030734;28;20193;-74
2022/01/03 02:16:49;;;;;;;3.10;2.72;;;8.10;99.90;;;;;;5027999;28;20181;-73
2022/01/03 02:19:15;;;;;;;3.92;2.92;;;8.20;99.90;;;;;;5026827;28;20208;-73
2022/01/03 02:21:41;;;;;;;3.65;3.35;;;8.20;99.90;;;;;;5026181;28;20246;-73
2022/01/03 02:24:07;;;;;;;3.03;2.83;;;8.30;99.90;;;;;;5016356;28;20182;-74
2022/01/03 02:26:34;;;;;;;3.17;2.90;;;8.20;99.90;;;;;;5027405;28;20208;-73
2022/01/03 02:29:00;;;;;;;2.70;2.50;;;8.20;99.90;;;;;;5037343;28;20555;-73
2022/01/03 02:31:26;;;;;;;4.47;3.13;;;8.30;99.90;;;;;;5025954;28;20209;-74
2022/01/03 02:33:52;;;;;;;2.70;2.50;;;8.40;99.90;;;;;;5027529;28;20181;-73
2022/01/03 02:36:19;;;;;;;2.58;2.38;;;8.40;99.90;;;;;;5033373;28;20642;-73
2022/01/03 02:38:46;;;;;;;4.00;2.88;;;8.50;99.90;;;;;;5023591;28;20243;-74
2022/01/03 02:41:12;;;;;;;4.05;2.50;;;8.60;99.90;;;;;;5025492;28;20221;-74
2022/01/03 02:43:37;;;;;;;2.35;2.20;;;8.60;99.90;;;;;;5027512;28;20181;-73
2022/01/03 02:46:03;;;;;;;3.35;2.40;;;8.70;99.90;;;;;;5031063;28;20210;-73
2022/01/03 02:48:29;;;;;;;2.30;2.13;;;8.70;99.90;;;;;;5027425;28;20648;-73
2022/01/03 02:50:55;;;;;;;2.50;2.30;;;8.80;99.90;;;;;;5032464;28;20356;-74
2022/01/03 02:53:21;;;;;;;2.25;2.15;;;8.90;99.90;;;;;;5029469;28;20204;-73
2022/01/03 02:55:48;;;;;;;1.90;1.80;;;9.00;99.90;;;;;;5035985;28;20180;-75
2022/01/03 02:58:14;;;;;;;3.67;2.40;;;9.00;99.90;;;;;;5021995;28;20263;-73
2022/01/03 03:00:47;;;;;;;3.33;2.20;;;9.10;99.90;;;;;;5017465;28;20371;-73
2022/01/03 03:03:14;;;;;;;2.15;2.05;;;9.20;99.90;;;;;;5023169;28;20585;-73
2022/01/03 03:05:40;;;;;;;2.22;1.67;;;9.30;99.90;;;;;;5021583;28;20184;-73
2022/01/03 03:08:06;;;;;;;3.33;1.70;;;9.30;99.90;;;;;;5027757;28;20185;-73
2022/01/03 03:10:31;;;;;;;2.00;1.80;;;9.30;99.90;;;;;;5026738;28;20226;-73
2022/01/03 03:12:57;;;;;;;3.08;2.33;;;9.30;99.90;;;;;;5026472;28;20325;-74
2022/01/03 03:15:23;;;;;;;1.85;1.40;;;9.40;99.90;;;;;;5020025;28;20208;-73
2022/01/03 03:17:49;;;;;;;1.98;1.77;;;9.40;99.90;;;;;;5018592;28;20280;-73
2022/01/03 03:20:20;;;;;;;1.67;1.58;;;9.40;99.90;;;;;;5021390;28;20527;-73
2022/01/03 03:22:50;;;;;;;1.63;1.52;;;9.40;99.90;;;;;;5025866;28;20586;-74
2022/01/03 03:25:21;;;;;;;1.77;1.67;;;9.40;99.90;;;;;;5028496;28;20659;-74
2022/01/03 03:27:53;;;;;;;1.88;1.70;;;9.40;99.90;;;;;;5021965;28;20269;-74
2022/01/03 03:30:28;;;;;;;2.38;1.65;;;9.40;99.90;;;;;;5028469;28;20595;-74
2022/01/03 03:32:59;;;;;;;4.25;1.30;;;9.50;99.90;;;;;;5029745;28;20640;-74
2022/01/03 03:35:25;;;;;;;3.10;1.90;;;9.50;99.90;;;;;;5024414;28;20185;-74
2022/01/03 03:37:50;;;;;;;1.83;1.73;;;9.50;99.90;;;;;;5023952;28;20189;-74
2022/01/03 03:40:16;;;;;;;2.00;1.75;;;9.50;99.90;;;;;;5031084;28;20200;-74
2022/01/03 03:42:43;;;;;;;3.25;1.90;;;9.60;99.90;;;;;;5033162;28;20655;-74
2022/01/03 03:45:10;;;;;;;2.47;1.15;;;9.60;99.90;;;;;;5036604;28;20184;-73
2022/01/03 03:47:36;;;;;;;1.95;0.63;;;9.20;99.90;;;;;;5022682;28;20231;-73
2022/01/03 03:50:03;;;;;;;1.02;0.80;;;8.50;99.90;;;;;;5027521;28;20188;-74
2022/01/03 03:52:28;;;;;;;0.43;0.43;;;8.00;99.90;;;;;;5023427;28;20561;-74
2022/01/03 03:54:54;;;;;;;1.17;0.50;;;7.70;99.90;;;;;;5027305;28;20239;-74
2022/01/03 03:57:20;;;;;;;0.65;0.65;;;7.50;99.90;;;;;;5030403;28;20648;-73
2022/01/03 03:59:46;;;;;;;0.40;0.40;;;7.30;99.90;;;;;;5019114;28;20631;-74
2022/01/03 04:02:11;;;;;;;0.45;0.45;;;7.20;99.90;;;;;;5029099;28;20208;-76
2022/01/03 04:04:37;;;;;;;0.75;0.50;;;7.20;99.90;;;;;;5019425;28;20234;-73
2022/01/03 04:07:03;;;;;;;0.43;0.32;;;7.10;99.90;;;;;;5048211;28;20180;-74
2022/01/03 04:09:29;;;;;;;0.47;0.47;;;7.00;99.90;;;;;;5030439;28;20215;-73
2022/01/03 04:11:55;;;;;;;1.75;0.75;;;7.00;99.90;;;;;;5031142;28;20200;-74
2022/01/03 04:14:20;;;;;;;0.60;0.60;;;6.90;99.90;;;;;;5033421;28;20189;-73
2022/01/03 04:16:46;;;;;;;0.73;0.50;;;6.80;99.90;;;;;;5033561;28;20172;-73
2022/01/03 04:19:12;;;;;;;0.45;0.45;;;6.80;99.90;;;;;;5033211;28;20267;-73
2022/01/03 04:21:39;;;;;;;0.88;0.65;;;6.80;99.90;;;;;;5036862;28;20220;-73
2022/01/03 04:24:09;;;;;;;0.65;0.65;;;6.80;99.90;;;;;;5030347;28;20678;-73
2022/01/03 04:26:36;;;;;;;2.17;0.52;;;6.70;99.90;;;;;;5035193;28;20184;-73
2022/01/03 04:29:03;;;;;;;0.40;0.40;;;6.70;99.90;;;;;;5034458;28;20191;-73
2022/01/03 04:31:29;;;;;;;0.20;0.20;;;6.60;99.90;;;;;;5031355;28;20573;-74
2022/01/03 04:33:56;;;;;;;0.40;0.40;;;6.60;99.90;;;;;;5034160;28;20190;-73
2022/01/03 04:36:21;;;;;;;1.25;0.30;;;6.50;99.90;;;;;;5035734;28;20177;-74
2022/01/03 04:38:47;;;;;;;0.60;0.50;;;6.60;99.90;;;;;;5035075;28;20185;-73
2022/01/03 04:41:13;;;;;;;0.40;0.40;;;6.60;99.90;;;;;;5034940;28;20212;-74
2022/01/03 04:43:41;;;;;;;1.58;0.70;;;6.70;99.90;;;;;;5030640;28;20176;-74
2022/01/03 04:46:08;;;;;;;0.70;0.40;;;6.70;99.90;;;;;;5035606;28;20639;-73
2022/01/03 04:48:34;;;;;;;2.15;1.00;;;6.80;99.90;;;;;;5033103;28;20200;-74
2022/01/03 04:51:00;;;;;;;0.40;0.40;;;6.80;99.90;;;;;;5035813;28;20266;-74
2022/01/03 04:53:27;;;;;;;0.65;0.52;;;6.70;99.90;;;;;;5034693;28;20188;-74
2022/01/03 04:55:53;;;;;;;0.50;0.50;;;6.70;99.90;;;;;;5036497;28;20176;-73
2022/01/03 04:58:19;;;;;;;1.45;0.50;;;6.70;99.90;;;;;;5036110;28;20184;-73
2022/01/03 05:00:45;;;;;;;0.47;0.30;;;6.70;99.90;;;;;;5032906;28;20557;-74
2022/01/03 05:03:10;;;;;;;0.35;0.32;;;6.70;99.90;;;;;;5034752;28;20193;-74
2022/01/03 05:05:36;;;;;;;0.50;0.50;;;6.70;99.90;;;;;;5033471;28;20176;-73
2022/01/03 05:08:02;;;;;;;2.25;0.70;;;6.80;99.90;;;;;;5032423;28;20297;-73
2022/01/03 05:10:27;;;;;;;1.65;0.60;;;6.80;99.90;;;;;;5033810;28;20183;-73
2022/01/03 05:12:53;;;;;;;0.43;0.43;;;6.80;99.90;;;;;;5040326;28;20239;-73
2022/01/03 05:15:19;;;;;;;0.40;0.40;;;6.80;99.90;;;;;;5031538;28;20184;-74
2022/01/03 05:17:44;;;;;;;2.05;0.55;;;6.90;99.90;;;;;;5032810;28;20272;-74
2022/01/03 05:20:12;;;;;;;3.35;0.77;;;6.90;99.90;;;;;;5033369;28;20200;-74
2022/01/03 05:22:38;;;;;;;1.33;0.80;;;6.90;99.90;;;;;;5029076;28;20200;-73
2022/01/03 05:25:04;;;;;;;1.95;1.20;;;6.90;99.90;;;;;;5027031;28;20178;-74
2022/01/03 05:27:30;;;;;;;1.20;0.50;;;6.90;99.90;;;;;;5031163;28;20176;-74
2022/01/03 05:29:55;;;;;;;1.10;0.55;;;6.80;99.90;;;;;;5028491;28;20284;-74
2022/01/03 05:32:21;;;;;;;1.52;0.80;;;6.80;99.90;;;;;;5036554;28;20267;-74
2022/01/03 05:34:47;;;;;;;2.10;0.60;;;6.70;99.90;;;;;;5033373;28;20711;-74
2022/01/03 05:37:12;;;;;;;0.70;0.70;;;6.60;99.90;;;;;;5033608;28;20192;-74
2022/01/03 05:39:38;;;;;;;0.90;0.60;;;6.60;99.90;;;;;;5037248;28;20257;-74
2022/01/03 05:42:04;;;;;;;3.00;0.85;;;6.40;99.90;;;;;;5031094;28;20209;-74
2022/01/03 05:44:29;;;;;;;1.15;0.85;;;6.40;99.90;;;;;;5032409;28;20180;-74
2022/01/03 05:46:55;;;;;;;0.90;0.90;;;6.30;99.90;;;;;;5032587;28;20645;-74
2022/01/03 05:49:21;;;;;;;0.73;0.70;;;6.30;99.90;;;;;;5037536;28;20208;-74
2022/01/03 05:51:46;;;;;;;1.33;0.80;;;6.40;99.90;;;;;;5037015;28;20192;-74
2022/01/03 05:54:12;;;;;;;1.65;0.80;;;6.40;99.90;;;;;;5027470;28;20266;-74
2022/01/03 05:56:37;;;;;;;2.03;0.80;;;6.40;99.90;;;;;;5031458;28;20647;-74
2022/01/03 05:59:07;;;;;;;1.20;0.80;;;6.40;99.90;;;;;;5037208;28;20184;-75
2022/01/03 06:01:34;;;;;;;1.92;1.25;;;6.40;99.90;;;;;;5032303;28;20259;-74
2022/01/03 06:04:11;;;;;;;0.93;0.93;;;6.40;99.90;;;;;;5036158;28;20210;-76
2022/01/03 06:06:55;;;;;;;2.78;0.73;;;6.40;99.90;;;;;;5034174;28;20164;-74
2022/01/03 06:09:22;;;;;;;0.63;0.63;;;6.30;99.90;;;;;;5030596;28;20211;-74
2022/01/03 06:11:48;;;;;;;2.92;0.63;;;6.20;99.90;;;;;;5031029;28;20196;-74
2022/01/03 06:14:16;;;;;;;1.80;1.17;;;6.20;99.90;;;;;;5026890;28;20181;-74
2022/01/03 06:16:43;;;;;;;0.85;0.68;;;6.10;99.90;;;;;;5026697;28;20180;-74
2022/01/03 06:19:09;;;;;;;3.15;1.08;;;6.00;99.90;;;;;;5026387;28;20277;-74
2022/01/03 06:21:40;;;;;;;0.95;0.95;;;6.10;99.90;;;;;;5029871;28;20606;-74
2022/01/03 06:24:13;;;;;;;2.80;0.80;;;6.20;99.90;;;;;;5026994;28;20180;-74
2022/01/03 06:26:41;;;;;;;1.83;1.05;;;6.20;99.90;;;;;;5037248;28;20227;-74
2022/01/03 06:29:08;;;;;;;1.25;0.88;;;6.30;99.90;;;;;;5028309;28;20616;-74
2022/01/03 06:31:34;;;;;;;1.13;0.90;;;6.30;99.90;;;;;;5030766;28;20205;-74
2022/01/03 06:34:00;;;;;;;1.95;1.08;;;6.30;99.90;;;;;;5032121;28;20183;-74
2022/01/03 06:36:26;;;;;;;0.82;0.82;;;6.30;99.90;;;;;;5033739;28;20177;-74
2022/01/03 06:38:53;;;;;;;0.82;0.70;;;6.40;99.90;;;;;;5031407;28;20279;-74
2022/01/03 06:41:19;;;;;;;0.57;0.57;;;6.50;99.90;;;;;;5038928;28;20211;-75
2022/01/03 06:43:45;;;;;;;3.15;1.00;;;6.40;99.90;;;;;;5033014;28;20168;-73
2022/01/03 06:46:11;;;;;;;0.80;0.80;;;6.40;99.90;;;;;;5024851;28;20180;-74
2022/01/03 06:48:36;;;;;;;0.30;0.30;;;6.40;99.90;;;;;;5037063;28;20554;-74
2022/01/03 06:51:03;;;;;;;1.85;0.50;;;6.30;99.90;;;;;;5031809;28;20210;-74
2022/01/03 06:53:28;;;;;;;0.60;0.60;;;6.30;99.90;;;;;;5028683;28;20185;-74
2022/01/03 06:55:54;;;;;;;0.47;0.47;;;6.30;99.90;;;;;;5029170;28;20835;-74
2022/01/03 06:58:20;;;;;;;0.75;0.75;;;6.30;99.90;;;;;;5033910;28;20667;-74
2022/01/03 07:00:45;;;;;;;0.63;0.63;;;6.30;99.90;;;;;;5037878;28;20243;-75
2022/01/03 07:03:11;;;;;;;0.40;0.40;;;6.40;99.90;;;;;;5024267;28;20661;-74
2022/01/03 07:05:36;;;;;;;0.70;0.70;;;6.40;99.90;;;;;;5026214;28;20256;-78
2022/01/03 07:08:02;;;;;;;0.65;0.65;;;6.50;99.90;;;;;;5027262;28;20184;-75
2022/01/03 07:10:28;;;;;;;2.05;0.85;;;6.60;99.90;;;;;;5051306;28;20184;-74
2022/01/03 07:12:55;;;;;;;1.80;0.60;;;6.60;99.90;;;;;;5031820;28;20188;-75
2022/01/03 07:20:52;;;;;;;2.30;1.20;;;6.50;99.90;;;;;;5019254;28;20218;-74
2022/01/03 07:23:18;;;;;;;2.75;1.38;;;6.40;99.90;;;;;;5021179;28;20169;-73
2022/01/03 07:25:48;;;;;;;1.10;1.00;;;6.40;99.90;;;;;;5021887;28;20173;-74
2022/01/03 07:28:15;;;;;;;1.85;0.80;;;6.40;99.90;;;;;;5027821;28;20176;-74
2022/01/03 07:30:41;;;;;;;4.40;2.72;;;6.40;99.90;;;;;;5027294;28;20197;-74
2022/01/03 07:33:07;;;;;;;2.55;1.83;;;6.40;99.90;;;;;;5029510;28;20693;-74
2022/01/03 07:35:33;;;;;;;2.35;1.27;;;6.50;99.90;;;;;;5021447;28;20181;-74
2022/01/03 07:37:59;;;;;;;2.42;1.60;;;6.60;99.90;;;;;;5021643;28;20587;-74
2022/01/03 07:40:25;;;;;;;1.42;1.27;;;6.60;99.90;;;;;;5023438;28;20200;-74
2022/01/03 07:42:51;;;;;;;2.45;1.13;;;6.70;99.90;;;;;;5023699;28;20192;-77
2022/01/03 07:45:17;;;;;;;3.10;1.00;;;6.60;99.90;;;;;;5026059;28;20177;-76
2022/01/03 07:47:43;;;;;;;1.80;1.20;;;6.60;99.90;;;;;;5025254;28;20185;-76
2022/01/03 07:50:10;;;;;;;1.70;0.88;;;6.60;99.90;;;;;;5037869;28;20202;-76
2022/01/03 07:52:37;;;;;;;1.65;0.85;;;6.60;99.90;;;;;;5029142;28;20683;-76
2022/01/03 07:55:05;;;;;;;1.00;1.00;;;6.70;99.90;;;;;;5025262;28;20271;-75
2022/01/03 07:57:30;;;;;;;1.13;1.00;;;6.80;99.90;;;;;;5031059;28;20176;-76
2022/01/03 07:59:56;;;;;;;4.85;1.92;;;6.70;99.90;;;;;;5023627;28;20210;-76
2022/01/03 08:02:22;;;;;;;1.88;1.05;;;6.70;99.90;;;;;;5022513;28;20204;-77
2022/01/03 08:04:48;;;;;;;2.28;1.40;;;6.70;99.90;;;;;;5028435;28;20656;-76
2022/01/03 08:07:13;;;;;;;2.22;1.13;;;6.70;99.90;;;;;;5029129;28;20180;-77
2022/01/03 08:09:39;;;;;;;1.23;0.95;;;6.80;99.90;;;;;;5026380;28;20188;-76
2022/01/03 08:12:05;;;;;;;1.27;1.00;;;6.80;99.90;;;;;;5030105;28;20211;-76
2022/01/03 08:14:32;;;;;;;2.63;1.10;;;6.80;99.90;;;;;;5024612;28;20177;-75
2022/01/03 08:16:58;;;;;;;2.17;1.38;;;6.90;99.90;;;;;;5027530;28;20189;-74
2022/01/03 08:19:23;;;;;;;2.88;1.17;;;6.90;99.90;;;;;;5027203;28;20545;-73
2022/01/03 08:21:50;;;;;;;0.75;0.75;;;7.00;99.90;;;;;;5025472;28;20277;-73
2022/01/03 08:24:16;;;;;;;1.90;1.10;;;7.00;99.90;;;;;;5032952;28;20180;-74
2022/01/03 08:26:42;;;;;;;2.00;1.15;;;7.10;99.90;;;;;;5026424;28;20545;-73
2022/01/03 08:29:09;;;;;;;1.13;0.80;;;7.10;99.90;;;;;;5025060;28;20173;-76
2022/01/03 08:31:36;;;;;;;1.40;1.30;;;7.10;99.90;;;;;;5019307;28;20197;-79
2022/01/03 08:34:03;;;;;;;2.13;1.40;;;7.20;99.90;;;;;;5030468;28;20312;-78
2022/01/03 08:36:29;;;;;;;2.78;2.33;;;7.20;99.90;;;;;;5027960;28;20205;-78
2022/01/03 08:38:54;;;;;;;4.30;1.40;;;7.30;99.90;;;;;;5036227;28;20215;-75
2022/01/03 08:41:20;;;;;;;0.80;0.80;;;7.50;99.90;;;;;;5025097;28;20216;-75
2022/01/03 08:43:45;;;;;;;0.95;0.90;;;7.70;99.90;;;;;;5030924;28;20235;-78
2022/01/03 08:46:11;;;;;;;2.75;1.38;;;7.90;99.90;;;;;;5030243;28;20184;-78
2022/01/03 08:48:37;;;;;;;4.90;1.30;;;8.00;99.90;;;;;;5024665;28;20263;-75
2022/01/03 08:51:03;;;;;;;1.15;0.90;;;8.10;99.90;;;;;;5035317;28;20784;-74
2022/01/03 08:53:28;;;;;;;2.17;0.98;;;8.10;99.90;;;;;;5027214;28;20190;-75
2022/01/03 08:55:56;;;;;;;1.38;0.93;;;8.10;99.90;;;;;;5029216;28;20193;-75
2022/01/03 08:58:23;;;;;;;1.83;0.85;;;8.30;99.90;;;;;;5031674;28;20180;-75
2022/01/03 09:00:49;;;;;;;1.45;1.27;;;8.40;99.90;;;;;;5031131;28;20270;-75
2022/01/03 09:03:15;;;;;;;2.10;1.23;;;8.40;99.90;;;;;;5028974;28;20555;-75
2022/01/03 09:05:41;;;;;;;4.57;1.30;;;8.50;99.90;;;;;;5032208;28;20181;-75
2022/01/03 09:08:07;;;;;;;2.25;1.25;;;8.50;99.90;;;;;;5035253;28;20184;-75
2022/01/03 09:10:33;;;;;;;2.45;1.35;;;8.60;99.90;;;;;;5036816;28;20552;-75
2022/01/03 09:12:59;;;;;;;1.73;1.45;;;8.70;99.90;;;;;;5027994;28;20201;-75
2022/01/03 09:15:25;;;;;;;2.75;1.10;;;8.70;99.90;;;;;;5040617;28;20598;-75
2022/01/03 09:17:50;;;;;;;3.25;1.20;;;8.90;99.90;;;;;;5037264;28;20176;-75
2022/01/03 09:20:16;;;;;;;1.15;0.77;;;8.90;99.90;;;;;;5044139;28;20205;-75
2022/01/03 09:22:46;;;;;;;0.50;0.50;;;8.90;99.90;;;;;;5033731;28;20185;-75
2022/01/03 09:30:35;;;;;;;2.10;1.20;;;9.20;99.90;;;;;;5026544;28;20192;-75
2022/01/03 09:33:01;;;;;;;1.40;1.30;;;9.40;99.90;;;;;;5030088;28;20176;-75
2022/01/03 09:35:27;;;;;;;1.70;1.40;;;9.50;99.90;;;;;;5026699;28;20552;-75
2022/01/03 09:37:53;;;;;;;1.00;1.00;;;9.60;99.90;;;;;;5019453;28;20185;-79
2022/01/03 09:40:19;;;;;;;1.50;1.17;;;9.80;99.90;;;;;;5035903;28;20250;-76
2022/01/03 09:42:49;;;;;;;1.23;0.93;;;9.90;99.90;;;;;;5033944;28;20181;-77
2022/01/03 09:45:15;;;;;;;1.92;0.90;;;10.00;99.90;;;;;;5031381;28;20813;-78
2022/01/03 09:47:44;;;;;;;1.45;1.33;;;10.10;99.90;;;;;;5030516;28;20177;-78
2022/01/03 09:50:12;;;;;;;2.78;1.33;;;10.20;99.90;;;;;;5038581;28;20687;-78
2022/01/03 09:52:41;;;;;;;3.75;1.67;;;10.30;99.90;;;;;;5029196;28;20200;-76
2022/01/03 09:55:08;;;;;;;1.10;0.98;;;10.50;99.90;;;;;;5031725;28;20184;-76
2022/01/03 09:57:35;;;;;;;19.95;1.63;;;10.60;99.90;;;;;;5029517;28;20185;-76
2022/01/03 10:00:01;;;;;;;2.00;0.98;;;10.70;99.90;;;;;;5027464;28;20219;-76
2022/01/03 10:02:27;;;;;;;3.55;2.10;;;10.80;99.90;;;;;;5041064;28;20257;-79
2022/01/03 10:04:53;;;;;;;2.33;1.50;;;10.70;99.90;;;;;;5034640;28;20168;-80
2022/01/03 10:07:20;;;;;;;3.85;1.73;;;10.70;99.90;;;;;;5030418;28;20648;-77
2022/01/03 10:09:46;;;;;;;1.95;1.75;;;10.70;99.90;;;;;;5027710;28;20331;-77
2022/01/03 10:12:15;;;;;;;2.25;1.95;;;10.70;99.90;;;;;;5032638;28;20212;-77
2022/01/03 10:14:42;;;;;;;3.10;0.98;;;10.70;99.90;;;;;;5031294;28;20189;-76
2022/01/03 10:17:08;;;;;;;2.45;1.67;;;10.70;99.90;;;;;;5030638;28;20195;-77
2022/01/03 10:19:57;;;;;;;3.00;1.30;;;10.80;99.90;;;;;;5026476;28;20298;-77
2022/01/03 10:22:29;;;;;;;2.03;1.67;;;10.90;99.90;;;;;;5028638;28;20741;-77
2022/01/03 10:24:56;;;;;;;3.25;1.67;;;11.00;99.90;;;;;;5032611;28;20185;-77
2022/01/03 10:27:23;;;;;;;2.08;1.20;;;10.90;99.90;;;;;;5028211;28;20179;-77
2022/01/03 10:29:57;;;;;;;2.80;1.27;;;11.10;99.90;;;;;;5030189;28;20548;-77
2022/01/03 10:32:30;;;;;;;4.18;1.92;;;11.20;99.90;;;;;;5032863;28;20208;-77
2022/01/03 10:35:16;;;;;;;1.48;1.38;;;11.20;99.90;;;;;;5034531;28;20694;-77
2022/01/03 10:37:42;;;;;;;2.00;1.17;;;11.30;99.90;;;;;;5030312;28;20216;-76
2022/01/03 10:40:21;;;;;;;5.28;1.60;;;11.20;99.90;;;;;;5029953;28;20208;-77
2022/01/03 10:42:47;;;;;;;1.00;1.00;;;11.10;99.90;;;;;;5033297;28;20176;-77
2022/01/03 10:45:25;;;;;;;1.55;1.20;;;11.10;99.90;;;;;;5028640;28;20683;-77
2022/01/03 10:47:51;;;;;;;1.38;0.90;;;10.90;99.90;;;;;;5031067;28;20176;-77
2022/01/03 10:50:19;;;;;;;1.17;1.17;;;10.70;99.90;;;;;;5030164;28;20658;-77
2022/01/03 10:52:46;;;;;;;1.90;1.27;;;10.40;99.90;;;;;;5032805;28;20184;-77
2022/01/03 10:55:26;;;;;;;3.58;1.40;;;10.10;99.90;;;;;;5028355;28;20183;-77
2022/01/03 10:57:59;;;;;;;4.30;1.70;;;10.10;99.90;;;;;;5030128;28;20186;-77
2022/01/03 11:00:32;;;;;;;1.55;1.45;;;10.10;99.90;;;;;;5028658;28;20693;-77
2022/01/03 11:05:54;;;;;;;2.67;1.30;;;9.90;99.90;;;;;;5034325;28;20253;-76
2022/01/03 11:11:09;;;;;;;1.83;1.17;;;9.70;99.90;;;;;;5024838;28;20225;-76
2022/01/03 11:13:44;;;;;;;1.40;1.15;;;9.70;99.90;;;;;;5026825;28;20777;-75
2022/01/03 11:16:11;;;;;;;1.60;1.40;;;9.60;99.90;;;;;;5031869;28;20559;-75
2022/01/03 11:18:42;;;;;;;2.15;1.30;;;9.50;99.90;;;;;;5030977;28;20177;-76
2022/01/03 11:21:23;;;;;;;2.05;1.30;;;9.40;99.90;;;;;;5029826;28;20211;-76
2022/01/03 11:24:11;;;;;;;3.33;1.50;;;9.40;99.90;;;;;;5031064;28;20259;-76
2022/01/03 11:26:47;;;;;;;1.73;1.08;;;9.30;99.90;;;;;;5024857;28;20176;-75
2022/01/03 11:29:15;;;;;;;2.38;1.42;;;9.20;99.90;;;;;;5031137;28;20180;-75
2022/01/03 11:31:41;;;;;;;5.60;1.60;;;9.10;99.90;;;;;;5027058;28;20283;-75
2022/01/03 11:34:08;;;;;;;3.65;1.30;;;9.00;99.90;;;;;;5031745;28;20184;-75
2022/01/03 11:36:36;;;;;;;1.92;1.40;;;9.00;99.90;;;;;;5030762;28;20510;-75
2022/01/03 11:39:07;;;;;;;3.17;1.42;;;9.00;99.90;;;;;;5025693;28;20658;-76
2022/01/03 11:41:35;;;;;;;4.28;1.35;;;9.10;99.90;;;;;;5032341;28;20224;-76
2022/01/03 11:44:02;;;;;;;4.45;1.38;;;9.20;99.90;;;;;;5032698;28;20180;-76
2022/01/03 11:46:28;;;;;;;5.10;1.50;;;9.30;99.90;;;;;;5037403;28;20173;-77
2022/01/03 11:48:54;;;;;;;3.50;1.13;;;9.40;99.90;;;;;;5043424;28;20180;-76
2022/01/03 11:51:22;;;;;;;3.25;1.83;;;9.60;99.90;;;;;;5029724;28;20204;-76
2022/01/03 11:53:49;;;;;;;2.65;1.38;;;9.70;99.90;;;;;;5029761;28;20554;-77
2022/01/03 11:56:25;;;;;;;1.92;1.35;;;10.00;99.90;;;;;;5031879;28;20674;-76
2022/01/03 11:59:18;;;;;;;4.00;1.50;;;10.10;99.90;;;;;;5036129;28;20588;-77
2022/01/03 12:04:39;;;;;;;2.13;1.48;;;10.60;99.90;;;;;;5033242;28;20259;-76
2022/01/03 12:07:08;;;;;;;2.80;2.00;;;10.50;99.90;;;;;;5034523;28;20169;-77
2022/01/03 12:09:37;;;;;;;2.13;1.15;;;10.50;99.90;;;;;;5037704;28;20180;-76
2022/01/03 12:12:04;;;;;;;2.92;1.40;;;10.50;99.90;;;;;;5034541;28;20714;-76
2022/01/03 12:14:44;;;;;;;1.48;1.00;;;10.40;99.90;;;;;;5023746;28;20193;-76
2022/01/03 12:17:13;;;;;;;1.55;1.08;;;10.30;99.90;;;;;;5033836;28;20183;-76
2022/01/03 12:19:42;;;;;;;1.58;0.90;;;10.20;99.90;;;;;;5028632;28;20177;-76
2022/01/03 12:22:19;;;;;;;2.22;1.17;;;10.10;99.90;;;;;;5029164;28;20209;-76
2022/01/03 12:24:49;;;;;;;4.50;1.40;;;10.20;99.90;;;;;;5028203;28;20172;-76
2022/01/03 12:27:15;;;;;;;3.15;1.35;;;10.10;99.90;;;;;;5032635;28;20623;-74
2022/01/03 12:30:01;;;;;;;2.30;1.33;;;10.10;99.90;;;;;;5028482;28;20183;-75
2022/01/03 12:32:30;;;;;;;1.52;1.10;;;10.20;99.90;;;;;;5031042;28;20298;-75
2022/01/03 12:35:15;;;;;;;3.70;1.40;;;10.10;99.90;;;;;;5031643;28;20181;-74
2022/01/03 12:37:53;;;;;;;2.30;1.10;;;10.10;99.90;;;;;;5032439;28;20215;-74
2022/01/03 12:40:24;;;;;;;2.22;1.25;;;10.00;99.90;;;;;;5033185;28;20215;-74
2022/01/03 12:42:57;;;;;;;2.30;1.55;;;9.90;99.90;;;;;;5030169;28;20185;-74
2022/01/03 12:45:28;;;;;;;2.20;1.10;;;9.90;99.90;;;;;;5030175;28;20657;-74
2022/01/03 12:48:15;;;;;;;3.35;1.30;;;9.90;99.90;;;;;;5031210;28;20255;-74
2022/01/03 12:51:05;;;;;;;3.53;1.48;;;9.80;99.90;;;;;;5037218;28;20207;-74
2022/01/03 12:53:30;;;;;;;4.22;1.30;;;9.90;99.90;;;;;;5034720;28;20172;-73
2022/01/03 12:56:03;;;;;;;3.83;1.70;;;9.90;99.90;;;;;;5031314;28;20193;-75
2022/01/03 12:58:28;;;;;;;5.18;1.73;;;9.90;99.90;;;;;;5031229;28;20180;-74
2022/01/03 13:00:59;;;;;;;3.67;1.50;;;9.90;99.90;;;;;;5033017;28;20227;-74
2022/01/03 13:03:43;;;;;;;4.57;1.50;;;10.00;99.90;;;;;;5037909;28;20191;-74
2022/01/03 13:06:17;;;;;;;5.10;2.28;;;10.00;99.90;;;;;;5029116;28;20187;-74
2022/01/03 13:08:52;;;;;;;2.20;1.60;;;9.90;99.90;;;;;;5030458;28;20183;-74
2022/01/03 13:11:20;;;;;;;4.60;1.75;;;10.00;99.90;;;;;;5026104;28;20204;-74
2022/01/03 13:13:48;;;;;;;3.45;2.00;;;10.00;99.90;;;;;;5036230;28;20193;-74
2022/01/03 13:16:37;;;;;;;2.22;1.80;;;10.10;99.90;;;;;;5032886;28;20566;-74
2022/01/03 13:19:06;;;;;;;5.22;1.48;;;10.20;99.90;;;;;;5033717;28;20186;-74
2022/01/03 13:21:36;;;;;;;3.83;1.50;;;10.30;99.90;;;;;;5029563;28;20913;-76
2022/01/03 13:24:04;;;;;;;2.10;1.50;;;10.30;99.90;;;;;;5027739;28;20173;-76